sensor_id;sensor_type;location;lat;lon;timestamp;P1;durP1;ratioP1;P2;durP2;ratioP2
20004;SDS011;69160;45.498;-73.582;2023-07-02T00:01:44;35.93;;;26.10;;
20004;SDS011;69160;45.498;-73.582;2023-07-02T00:04:12;35.47;;;26.37;;
20004;SDS011;69160;45.498;-73.582;2023-07-02T00:06:42;37.60;;;26.10;;
20004;SDS011;69160;45.498;-73.582;2023-07-02T00:09:09;40.03;;;27.70;;
20004;SDS011;69160;45.498;-73.582;2023-07-02T00:11:39;36.60;;;25.90;;
20004;SDS011;69160;45.498;-73.582;2023-07-02T00:14:07;36.73;;;25.97;;
20004;SDS011;69160;45.498;-73.582;2023-07-02T00:16:35;37.27;;;26.00;;
20004;SDS011;69160;45.498;-73.582;2023-07-02T00:19:03;38.50;;;25.20;;
20004;SDS011;69160;45.498;-73.582;2023-07-02T00:21:29;39.40;;;27.33;;
20004;SDS011;69160;45.498;-73.582;2023-07-02T00:23:58;35.63;;;24.87;;
20004;SDS011;69160;45.498;-73.582;2023-07-02T00:26:25;35.73;;;25.30;;
20004;SDS011;69160;45.498;-73.582;2023-07-02T00:28:53;36.80;;;26.50;;
20004;SDS011;69160;45.498;-73.582;2023-07-02T00:31:20;37.20;;;26.47;;
20004;SDS011;69160;45.498;-73.582;2023-07-02T00:33:46;39.50;;;27.17;;
20004;SDS011;69160;45.498;-73.582;2023-07-02T00:36:13;39.90;;;27.10;;
20004;SDS011;69160;45.498;-73.582;2023-07-02T00:38:44;38.43;;;28.00;;
20004;SDS011;69160;45.498;-73.582;2023-07-02T00:41:15;36.20;;;25.60;;
20004;SDS011;69160;45.498;-73.582;2023-07-02T00:43:41;36.80;;;25.47;;
20004;SDS011;69160;45.498;-73.582;2023-07-02T00:46:14;36.07;;;25.37;;
20004;SDS011;69160;45.498;-73.582;2023-07-02T00:48:46;39.60;;;26.60;;
20004;SDS011;69160;45.498;-73.582;2023-07-02T00:51:14;36.90;;;25.37;;
20004;SDS011;69160;45.498;-73.582;2023-07-02T00:53:42;36.50;;;25.30;;
20004;SDS011;69160;45.498;-73.582;2023-07-02T00:56:11;33.27;;;24.80;;
20004;SDS011;69160;45.498;-73.582;2023-07-02T00:58:44;35.00;;;24.63;;
20004;SDS011;69160;45.498;-73.582;2023-07-02T01:01:16;32.47;;;23.37;;
20004;SDS011;69160;45.498;-73.582;2023-07-02T01:06:39;35.57;;;25.07;;
20004;SDS011;69160;45.498;-73.582;2023-07-02T01:09:08;37.10;;;24.60;;
20004;SDS011;69160;45.498;-73.582;2023-07-02T01:11:49;35.80;;;24.00;;
20004;SDS011;69160;45.498;-73.582;2023-07-02T01:16:57;34.90;;;25.10;;
20004;SDS011;69160;45.498;-73.582;2023-07-02T01:22:24;37.73;;;25.43;;
20004;SDS011;69160;45.498;-73.582;2023-07-02T01:24:52;34.30;;;23.73;;
20004;SDS011;69160;45.498;-73.582;2023-07-02T01:27:19;33.50;;;25.50;;
20004;SDS011;69160;45.498;-73.582;2023-07-02T01:29:46;38.47;;;26.23;;
20004;SDS011;69160;45.498;-73.582;2023-07-02T01:32:15;31.53;;;22.93;;
20004;SDS011;69160;45.498;-73.582;2023-07-02T01:34:42;33.83;;;24.87;;
20004;SDS011;69160;45.498;-73.582;2023-07-02T01:37:09;36.13;;;25.43;;
20004;SDS011;69160;45.498;-73.582;2023-07-02T01:39:35;35.07;;;24.83;;
20004;SDS011;69160;45.498;-73.582;2023-07-02T01:44:35;38.03;;;25.50;;
20004;SDS011;69160;45.498;-73.582;2023-07-02T01:47:01;35.90;;;25.57;;
20004;SDS011;69160;45.498;-73.582;2023-07-02T01:49:27;33.13;;;24.17;;
20004;SDS011;69160;45.498;-73.582;2023-07-02T01:51:54;33.87;;;23.83;;
20004;SDS011;69160;45.498;-73.582;2023-07-02T01:54:25;34.57;;;24.20;;
20004;SDS011;69160;45.498;-73.582;2023-07-02T01:56:52;32.90;;;24.30;;
20004;SDS011;69160;45.498;-73.582;2023-07-02T01:59:19;34.23;;;24.60;;
20004;SDS011;69160;45.498;-73.582;2023-07-02T02:01:45;33.17;;;23.60;;
20004;SDS011;69160;45.498;-73.582;2023-07-02T02:04:11;32.30;;;24.30;;
20004;SDS011;69160;45.498;-73.582;2023-07-02T02:06:38;34.90;;;25.47;;
20004;SDS011;69160;45.498;-73.582;2023-07-02T02:09:05;31.83;;;23.53;;
20004;SDS011;69160;45.498;-73.582;2023-07-02T02:11:32;34.07;;;24.33;;
20004;SDS011;69160;45.498;-73.582;2023-07-02T02:13:59;34.50;;;25.23;;
20004;SDS011;69160;45.498;-73.582;2023-07-02T02:16:26;33.53;;;24.30;;
20004;SDS011;69160;45.498;-73.582;2023-07-02T02:18:53;35.30;;;24.50;;
20004;SDS011;69160;45.498;-73.582;2023-07-02T02:21:19;34.40;;;24.93;;
20004;SDS011;69160;45.498;-73.582;2023-07-02T02:23:46;32.20;;;22.80;;
20004;SDS011;69160;45.498;-73.582;2023-07-02T02:26:13;33.33;;;24.23;;
20004;SDS011;69160;45.498;-73.582;2023-07-02T02:28:40;33.10;;;24.27;;
20004;SDS011;69160;45.498;-73.582;2023-07-02T02:31:08;35.40;;;24.97;;
20004;SDS011;69160;45.498;-73.582;2023-07-02T02:33:34;35.00;;;23.70;;
20004;SDS011;69160;45.498;-73.582;2023-07-02T02:36:01;33.57;;;24.63;;
20004;SDS011;69160;45.498;-73.582;2023-07-02T02:38:27;33.33;;;24.30;;
20004;SDS011;69160;45.498;-73.582;2023-07-02T02:40:53;34.47;;;24.27;;
20004;SDS011;69160;45.498;-73.582;2023-07-02T02:43:19;34.33;;;24.30;;
20004;SDS011;69160;45.498;-73.582;2023-07-02T02:45:46;33.70;;;23.83;;
20004;SDS011;69160;45.498;-73.582;2023-07-02T02:48:12;32.30;;;23.13;;
20004;SDS011;69160;45.498;-73.582;2023-07-02T02:50:38;32.40;;;24.77;;
20004;SDS011;69160;45.498;-73.582;2023-07-02T02:53:06;33.93;;;23.97;;
20004;SDS011;69160;45.498;-73.582;2023-07-02T02:55:33;34.00;;;24.00;;
20004;SDS011;69160;45.498;-73.582;2023-07-02T02:58:00;33.10;;;23.10;;
20004;SDS011;69160;45.498;-73.582;2023-07-02T03:00:26;33.70;;;23.97;;
20004;SDS011;69160;45.498;-73.582;2023-07-02T03:02:53;30.80;;;23.23;;
20004;SDS011;69160;45.498;-73.582;2023-07-02T03:05:19;34.27;;;23.40;;
20004;SDS011;69160;45.498;-73.582;2023-07-02T03:07:45;33.13;;;22.60;;
20004;SDS011;69160;45.498;-73.582;2023-07-02T03:10:11;32.00;;;22.43;;
20004;SDS011;69160;45.498;-73.582;2023-07-02T03:12:37;31.80;;;22.67;;
20004;SDS011;69160;45.498;-73.582;2023-07-02T03:15:03;31.20;;;22.63;;
20004;SDS011;69160;45.498;-73.582;2023-07-02T03:17:30;29.70;;;21.60;;
20004;SDS011;69160;45.498;-73.582;2023-07-02T03:19:56;31.67;;;22.83;;
20004;SDS011;69160;45.498;-73.582;2023-07-02T03:22:22;28.43;;;21.30;;
20004;SDS011;69160;45.498;-73.582;2023-07-02T03:24:48;31.73;;;22.80;;
20004;SDS011;69160;45.498;-73.582;2023-07-02T03:27:14;30.50;;;21.80;;
20004;SDS011;69160;45.498;-73.582;2023-07-02T03:29:40;34.27;;;23.50;;
20004;SDS011;69160;45.498;-73.582;2023-07-02T03:32:07;29.77;;;21.40;;
20004;SDS011;69160;45.498;-73.582;2023-07-02T03:34:33;29.03;;;21.80;;
20004;SDS011;69160;45.498;-73.582;2023-07-02T03:36:59;30.73;;;21.47;;
20004;SDS011;69160;45.498;-73.582;2023-07-02T03:39:25;30.60;;;21.90;;
20004;SDS011;69160;45.498;-73.582;2023-07-02T03:41:51;30.00;;;21.20;;
20004;SDS011;69160;45.498;-73.582;2023-07-02T03:44:18;28.87;;;21.47;;
20004;SDS011;69160;45.498;-73.582;2023-07-02T03:46:44;31.30;;;22.07;;
20004;SDS011;69160;45.498;-73.582;2023-07-02T03:49:11;30.67;;;20.90;;
20004;SDS011;69160;45.498;-73.582;2023-07-02T03:51:37;28.10;;;20.27;;
20004;SDS011;69160;45.498;-73.582;2023-07-02T03:54:03;30.80;;;21.63;;
20004;SDS011;69160;45.498;-73.582;2023-07-02T03:56:30;29.70;;;20.67;;
20004;SDS011;69160;45.498;-73.582;2023-07-02T03:58:56;29.37;;;20.60;;
20004;SDS011;69160;45.498;-73.582;2023-07-02T04:01:22;28.60;;;20.90;;
20004;SDS011;69160;45.498;-73.582;2023-07-02T04:03:49;30.10;;;21.17;;
20004;SDS011;69160;45.498;-73.582;2023-07-02T04:06:16;29.57;;;20.90;;
20004;SDS011;69160;45.498;-73.582;2023-07-02T04:08:43;27.53;;;20.10;;
20004;SDS011;69160;45.498;-73.582;2023-07-02T04:11:10;28.00;;;20.50;;
20004;SDS011;69160;45.498;-73.582;2023-07-02T04:13:37;30.87;;;20.70;;
20004;SDS011;69160;45.498;-73.582;2023-07-02T04:16:04;28.73;;;20.27;;
20004;SDS011;69160;45.498;-73.582;2023-07-02T04:18:31;30.73;;;21.70;;
20004;SDS011;69160;45.498;-73.582;2023-07-02T04:20:57;29.27;;;19.83;;
20004;SDS011;69160;45.498;-73.582;2023-07-02T04:23:24;27.20;;;20.30;;
20004;SDS011;69160;45.498;-73.582;2023-07-02T04:25:50;29.07;;;20.97;;
20004;SDS011;69160;45.498;-73.582;2023-07-02T04:28:17;28.57;;;20.30;;
20004;SDS011;69160;45.498;-73.582;2023-07-02T04:30:44;29.33;;;20.97;;
20004;SDS011;69160;45.498;-73.582;2023-07-02T04:33:11;30.33;;;20.67;;
20004;SDS011;69160;45.498;-73.582;2023-07-02T04:35:39;28.13;;;21.33;;
20004;SDS011;69160;45.498;-73.582;2023-07-02T04:38:05;28.67;;;19.80;;
20004;SDS011;69160;45.498;-73.582;2023-07-02T04:40:32;26.20;;;19.77;;
20004;SDS011;69160;45.498;-73.582;2023-07-02T04:42:58;28.30;;;19.73;;
20004;SDS011;69160;45.498;-73.582;2023-07-02T04:45:25;30.53;;;21.27;;
20004;SDS011;69160;45.498;-73.582;2023-07-02T04:47:51;29.30;;;20.50;;
20004;SDS011;69160;45.498;-73.582;2023-07-02T04:50:18;26.60;;;18.97;;
20004;SDS011;69160;45.498;-73.582;2023-07-02T04:52:44;28.10;;;19.60;;
20004;SDS011;69160;45.498;-73.582;2023-07-02T04:55:11;27.07;;;19.83;;
20004;SDS011;69160;45.498;-73.582;2023-07-02T04:57:37;27.70;;;19.43;;
20004;SDS011;69160;45.498;-73.582;2023-07-02T05:00:03;26.20;;;19.07;;
20004;SDS011;69160;45.498;-73.582;2023-07-02T05:02:33;27.70;;;19.60;;
20004;SDS011;69160;45.498;-73.582;2023-07-02T05:05:00;28.80;;;19.60;;
20004;SDS011;69160;45.498;-73.582;2023-07-02T05:07:26;25.60;;;19.37;;
20004;SDS011;69160;45.498;-73.582;2023-07-02T05:09:52;25.80;;;18.73;;
20004;SDS011;69160;45.498;-73.582;2023-07-02T05:12:18;26.90;;;19.90;;
20004;SDS011;69160;45.498;-73.582;2023-07-02T05:14:45;27.70;;;18.43;;
20004;SDS011;69160;45.498;-73.582;2023-07-02T05:17:11;25.47;;;18.87;;
20004;SDS011;69160;45.498;-73.582;2023-07-02T05:19:39;24.57;;;18.10;;
20004;SDS011;69160;45.498;-73.582;2023-07-02T05:22:06;29.53;;;20.27;;
20004;SDS011;69160;45.498;-73.582;2023-07-02T05:24:33;28.43;;;18.80;;
20004;SDS011;69160;45.498;-73.582;2023-07-02T05:26:59;24.60;;;18.20;;
20004;SDS011;69160;45.498;-73.582;2023-07-02T05:29:25;26.57;;;18.97;;
20004;SDS011;69160;45.498;-73.582;2023-07-02T05:31:52;27.20;;;18.33;;
20004;SDS011;69160;45.498;-73.582;2023-07-02T05:34:18;25.57;;;18.77;;
20004;SDS011;69160;45.498;-73.582;2023-07-02T05:36:44;26.07;;;18.33;;
20004;SDS011;69160;45.498;-73.582;2023-07-02T05:39:10;25.90;;;18.30;;
20004;SDS011;69160;45.498;-73.582;2023-07-02T05:41:36;26.30;;;19.60;;
20004;SDS011;69160;45.498;-73.582;2023-07-02T05:44:02;26.50;;;19.60;;
20004;SDS011;69160;45.498;-73.582;2023-07-02T05:46:28;23.53;;;18.17;;
20004;SDS011;69160;45.498;-73.582;2023-07-02T05:48:55;26.03;;;18.30;;
20004;SDS011;69160;45.498;-73.582;2023-07-02T05:51:24;26.57;;;19.00;;
20004;SDS011;69160;45.498;-73.582;2023-07-02T05:53:51;23.37;;;17.20;;
20004;SDS011;69160;45.498;-73.582;2023-07-02T05:56:18;22.63;;;16.40;;
20004;SDS011;69160;45.498;-73.582;2023-07-02T05:58:48;25.53;;;19.17;;
20004;SDS011;69160;45.498;-73.582;2023-07-02T06:01:15;27.00;;;19.07;;
20004;SDS011;69160;45.498;-73.582;2023-07-02T06:03:42;25.67;;;18.80;;
20004;SDS011;69160;45.498;-73.582;2023-07-02T06:06:11;26.37;;;18.50;;
20004;SDS011;69160;45.498;-73.582;2023-07-02T06:08:37;25.87;;;18.27;;
20004;SDS011;69160;45.498;-73.582;2023-07-02T06:11:03;26.20;;;18.83;;
20004;SDS011;69160;45.498;-73.582;2023-07-02T06:13:29;25.50;;;18.60;;
20004;SDS011;69160;45.498;-73.582;2023-07-02T06:15:56;24.10;;;17.73;;
20004;SDS011;69160;45.498;-73.582;2023-07-02T06:18:22;25.30;;;19.07;;
20004;SDS011;69160;45.498;-73.582;2023-07-02T06:20:49;27.67;;;19.87;;
20004;SDS011;69160;45.498;-73.582;2023-07-02T06:23:15;26.20;;;18.53;;
20004;SDS011;69160;45.498;-73.582;2023-07-02T06:25:41;26.47;;;18.30;;
20004;SDS011;69160;45.498;-73.582;2023-07-02T06:28:07;26.43;;;18.53;;
20004;SDS011;69160;45.498;-73.582;2023-07-02T06:30:34;25.37;;;18.40;;
20004;SDS011;69160;45.498;-73.582;2023-07-02T06:33:00;25.53;;;18.93;;
20004;SDS011;69160;45.498;-73.582;2023-07-02T06:35:27;26.93;;;19.57;;
20004;SDS011;69160;45.498;-73.582;2023-07-02T06:37:53;27.70;;;18.27;;
20004;SDS011;69160;45.498;-73.582;2023-07-02T06:40:20;23.67;;;17.70;;
20004;SDS011;69160;45.498;-73.582;2023-07-02T06:42:47;26.27;;;19.23;;
20004;SDS011;69160;45.498;-73.582;2023-07-02T06:45:13;26.33;;;18.70;;
20004;SDS011;69160;45.498;-73.582;2023-07-02T06:47:40;26.20;;;18.60;;
20004;SDS011;69160;45.498;-73.582;2023-07-02T06:50:06;26.20;;;18.27;;
20004;SDS011;69160;45.498;-73.582;2023-07-02T06:52:32;25.73;;;19.20;;
20004;SDS011;69160;45.498;-73.582;2023-07-02T06:54:58;24.70;;;17.60;;
20004;SDS011;69160;45.498;-73.582;2023-07-02T06:57:24;25.63;;;18.70;;
20004;SDS011;69160;45.498;-73.582;2023-07-02T06:59:50;27.10;;;19.03;;
20004;SDS011;69160;45.498;-73.582;2023-07-02T07:02:17;26.17;;;19.10;;
20004;SDS011;69160;45.498;-73.582;2023-07-02T07:04:43;25.47;;;18.00;;
20004;SDS011;69160;45.498;-73.582;2023-07-02T07:07:09;24.67;;;18.33;;
20004;SDS011;69160;45.498;-73.582;2023-07-02T07:09:35;25.63;;;17.73;;
20004;SDS011;69160;45.498;-73.582;2023-07-02T07:12:02;24.10;;;18.53;;
20004;SDS011;69160;45.498;-73.582;2023-07-02T07:14:28;22.80;;;16.10;;
20004;SDS011;69160;45.498;-73.582;2023-07-02T07:16:54;23.83;;;17.03;;
20004;SDS011;69160;45.498;-73.582;2023-07-02T07:19:20;23.77;;;17.47;;
20004;SDS011;69160;45.498;-73.582;2023-07-02T07:21:46;25.03;;;17.57;;
20004;SDS011;69160;45.498;-73.582;2023-07-02T07:24:13;23.13;;;16.73;;
20004;SDS011;69160;45.498;-73.582;2023-07-02T07:26:39;22.70;;;17.10;;
20004;SDS011;69160;45.498;-73.582;2023-07-02T07:29:05;20.93;;;15.80;;
20004;SDS011;69160;45.498;-73.582;2023-07-02T07:31:31;21.90;;;16.13;;
20004;SDS011;69160;45.498;-73.582;2023-07-02T07:33:57;22.13;;;17.00;;
20004;SDS011;69160;45.498;-73.582;2023-07-02T07:36:23;21.83;;;15.47;;
20004;SDS011;69160;45.498;-73.582;2023-07-02T07:38:49;23.17;;;16.67;;
20004;SDS011;69160;45.498;-73.582;2023-07-02T07:41:15;21.17;;;15.80;;
20004;SDS011;69160;45.498;-73.582;2023-07-02T07:43:41;19.80;;;14.77;;
20004;SDS011;69160;45.498;-73.582;2023-07-02T07:46:08;21.90;;;15.70;;
20004;SDS011;69160;45.498;-73.582;2023-07-02T07:48:34;19.93;;;14.67;;
20004;SDS011;69160;45.498;-73.582;2023-07-02T07:51:00;20.23;;;15.13;;
20004;SDS011;69160;45.498;-73.582;2023-07-02T07:53:26;21.57;;;16.30;;
20004;SDS011;69160;45.498;-73.582;2023-07-02T07:55:52;22.00;;;15.37;;
20004;SDS011;69160;45.498;-73.582;2023-07-02T07:58:18;20.77;;;15.50;;
20004;SDS011;69160;45.498;-73.582;2023-07-02T08:00:44;20.97;;;15.07;;
20004;SDS011;69160;45.498;-73.582;2023-07-02T08:03:11;21.87;;;15.33;;
20004;SDS011;69160;45.498;-73.582;2023-07-02T08:05:37;20.30;;;14.47;;
20004;SDS011;69160;45.498;-73.582;2023-07-02T08:08:03;19.63;;;14.27;;
20004;SDS011;69160;45.498;-73.582;2023-07-02T08:10:29;20.63;;;14.90;;
20004;SDS011;69160;45.498;-73.582;2023-07-02T08:12:55;18.80;;;14.00;;
20004;SDS011;69160;45.498;-73.582;2023-07-02T08:15:21;17.93;;;13.90;;
20004;SDS011;69160;45.498;-73.582;2023-07-02T08:17:48;21.00;;;15.20;;
20004;SDS011;69160;45.498;-73.582;2023-07-02T08:20:14;19.03;;;14.43;;
20004;SDS011;69160;45.498;-73.582;2023-07-02T08:22:42;16.80;;;12.90;;
20004;SDS011;69160;45.498;-73.582;2023-07-02T08:25:08;19.40;;;13.80;;
20004;SDS011;69160;45.498;-73.582;2023-07-02T08:27:34;18.77;;;13.50;;
20004;SDS011;69160;45.498;-73.582;2023-07-02T08:30:00;19.63;;;13.47;;
20004;SDS011;69160;45.498;-73.582;2023-07-02T08:32:26;17.60;;;12.60;;
20004;SDS011;69160;45.498;-73.582;2023-07-02T08:34:52;16.40;;;12.80;;
20004;SDS011;69160;45.498;-73.582;2023-07-02T08:37:20;17.20;;;11.90;;
20004;SDS011;69160;45.498;-73.582;2023-07-02T08:39:48;15.43;;;12.07;;
20004;SDS011;69160;45.498;-73.582;2023-07-02T08:42:15;18.20;;;13.07;;
20004;SDS011;69160;45.498;-73.582;2023-07-02T08:44:42;17.70;;;12.90;;
20004;SDS011;69160;45.498;-73.582;2023-07-02T08:47:11;18.40;;;13.40;;
20004;SDS011;69160;45.498;-73.582;2023-07-02T08:49:37;16.57;;;11.97;;
20004;SDS011;69160;45.498;-73.582;2023-07-02T08:52:04;14.53;;;11.37;;
20004;SDS011;69160;45.498;-73.582;2023-07-02T08:54:30;16.20;;;12.30;;
20004;SDS011;69160;45.498;-73.582;2023-07-02T08:56:57;14.90;;;11.37;;
20004;SDS011;69160;45.498;-73.582;2023-07-02T08:59:23;15.10;;;12.30;;
20004;SDS011;69160;45.498;-73.582;2023-07-02T09:01:50;16.70;;;12.07;;
20004;SDS011;69160;45.498;-73.582;2023-07-02T09:06:49;16.87;;;12.80;;
20004;SDS011;69160;45.498;-73.582;2023-07-02T09:09:29;17.03;;;12.50;;
20004;SDS011;69160;45.498;-73.582;2023-07-02T09:11:55;16.47;;;12.27;;
20004;SDS011;69160;45.498;-73.582;2023-07-02T09:14:25;16.33;;;12.20;;
20004;SDS011;69160;45.498;-73.582;2023-07-02T09:17:05;17.70;;;12.33;;
20004;SDS011;69160;45.498;-73.582;2023-07-02T09:19:34;15.90;;;11.67;;
20004;SDS011;69160;45.498;-73.582;2023-07-02T09:22:01;15.97;;;11.87;;
20004;SDS011;69160;45.498;-73.582;2023-07-02T09:24:31;15.43;;;11.10;;
20004;SDS011;69160;45.498;-73.582;2023-07-02T09:27:01;15.57;;;12.07;;
20004;SDS011;69160;45.498;-73.582;2023-07-02T09:29:28;15.43;;;11.90;;
20004;SDS011;69160;45.498;-73.582;2023-07-02T09:31:59;15.03;;;11.00;;
20004;SDS011;69160;45.498;-73.582;2023-07-02T09:34:29;14.60;;;11.20;;
20004;SDS011;69160;45.498;-73.582;2023-07-02T09:36:57;14.70;;;10.63;;
20004;SDS011;69160;45.498;-73.582;2023-07-02T09:39:28;15.80;;;11.20;;
20004;SDS011;69160;45.498;-73.582;2023-07-02T09:41:56;14.60;;;11.13;;
20004;SDS011;69160;45.498;-73.582;2023-07-02T09:44:32;15.23;;;10.73;;
20004;SDS011;69160;45.498;-73.582;2023-07-02T09:47:02;15.27;;;11.40;;
20004;SDS011;69160;45.498;-73.582;2023-07-02T09:49:34;14.57;;;11.70;;
20004;SDS011;69160;45.498;-73.582;2023-07-02T09:52:02;13.47;;;11.03;;
20004;SDS011;69160;45.498;-73.582;2023-07-02T09:54:30;14.83;;;11.03;;
20004;SDS011;69160;45.498;-73.582;2023-07-02T09:56:57;13.80;;;10.83;;
20004;SDS011;69160;45.498;-73.582;2023-07-02T09:59:24;13.20;;;10.03;;
20004;SDS011;69160;45.498;-73.582;2023-07-02T10:01:51;13.00;;;10.00;;
20004;SDS011;69160;45.498;-73.582;2023-07-02T10:04:18;12.07;;;9.37;;
20004;SDS011;69160;45.498;-73.582;2023-07-02T10:06:46;13.27;;;10.30;;
20004;SDS011;69160;45.498;-73.582;2023-07-02T10:09:12;15.63;;;11.30;;
20004;SDS011;69160;45.498;-73.582;2023-07-02T10:11:38;14.93;;;10.63;;
20004;SDS011;69160;45.498;-73.582;2023-07-02T10:14:04;14.13;;;10.57;;
20004;SDS011;69160;45.498;-73.582;2023-07-02T10:16:30;13.23;;;10.23;;
20004;SDS011;69160;45.498;-73.582;2023-07-02T10:19:10;13.00;;;10.07;;
20004;SDS011;69160;45.498;-73.582;2023-07-02T10:21:37;11.23;;;9.13;;
20004;SDS011;69160;45.498;-73.582;2023-07-02T10:24:13;14.57;;;10.83;;
20004;SDS011;69160;45.498;-73.582;2023-07-02T10:29:24;13.07;;;10.23;;
20004;SDS011;69160;45.498;-73.582;2023-07-02T10:31:52;12.13;;;9.13;;
20004;SDS011;69160;45.498;-73.582;2023-07-02T10:34:29;13.20;;;9.10;;
20004;SDS011;69160;45.498;-73.582;2023-07-02T10:36:59;13.67;;;10.37;;
20004;SDS011;69160;45.498;-73.582;2023-07-02T10:39:29;10.40;;;8.40;;
20004;SDS011;69160;45.498;-73.582;2023-07-02T10:44:32;12.30;;;8.67;;
20004;SDS011;69160;45.498;-73.582;2023-07-02T10:46:59;11.70;;;9.07;;
20004;SDS011;69160;45.498;-73.582;2023-07-02T10:49:32;11.20;;;8.33;;
20004;SDS011;69160;45.498;-73.582;2023-07-02T10:51:59;10.53;;;8.57;;
20004;SDS011;69160;45.498;-73.582;2023-07-02T10:54:37;10.23;;;8.00;;
20004;SDS011;69160;45.498;-73.582;2023-07-02T10:57:07;11.20;;;8.70;;
20004;SDS011;69160;45.498;-73.582;2023-07-02T10:59:34;11.10;;;8.70;;
20004;SDS011;69160;45.498;-73.582;2023-07-02T11:02:00;10.67;;;8.87;;
20004;SDS011;69160;45.498;-73.582;2023-07-02T11:04:31;10.87;;;8.60;;
20004;SDS011;69160;45.498;-73.582;2023-07-02T11:06:57;11.83;;;9.43;;
20004;SDS011;69160;45.498;-73.582;2023-07-02T11:09:23;12.13;;;9.37;;
20004;SDS011;69160;45.498;-73.582;2023-07-02T11:11:54;12.83;;;9.80;;
20004;SDS011;69160;45.498;-73.582;2023-07-02T11:14:31;10.53;;;8.40;;
20004;SDS011;69160;45.498;-73.582;2023-07-02T11:17:05;11.67;;;8.93;;
20004;SDS011;69160;45.498;-73.582;2023-07-02T11:19:33;11.10;;;8.97;;
20004;SDS011;69160;45.498;-73.582;2023-07-02T11:22:02;12.97;;;10.47;;
20004;SDS011;69160;45.498;-73.582;2023-07-02T11:26:59;13.37;;;10.20;;
20004;SDS011;69160;45.498;-73.582;2023-07-02T11:29:28;12.60;;;10.20;;
20004;SDS011;69160;45.498;-73.582;2023-07-02T11:32:04;14.23;;;9.90;;
20004;SDS011;69160;45.498;-73.582;2023-07-02T11:34:31;13.80;;;10.20;;
20004;SDS011;69160;45.498;-73.582;2023-07-02T11:36:57;14.00;;;10.60;;
20004;SDS011;69160;45.498;-73.582;2023-07-02T11:39:24;12.43;;;9.80;;
20004;SDS011;69160;45.498;-73.582;2023-07-02T11:41:50;14.20;;;10.57;;
20004;SDS011;69160;45.498;-73.582;2023-07-02T11:44:17;12.80;;;10.30;;
20004;SDS011;69160;45.498;-73.582;2023-07-02T11:46:44;14.37;;;10.87;;
20004;SDS011;69160;45.498;-73.582;2023-07-02T11:49:12;12.33;;;9.83;;
20004;SDS011;69160;45.498;-73.582;2023-07-02T11:51:42;13.63;;;9.93;;
20004;SDS011;69160;45.498;-73.582;2023-07-02T11:54:14;15.30;;;11.10;;
20004;SDS011;69160;45.498;-73.582;2023-07-02T11:56:41;14.10;;;10.73;;
20004;SDS011;69160;45.498;-73.582;2023-07-02T11:59:08;14.37;;;11.30;;
20004;SDS011;69160;45.498;-73.582;2023-07-02T12:01:34;13.80;;;10.20;;
20004;SDS011;69160;45.498;-73.582;2023-07-02T12:04:00;15.10;;;11.33;;
20004;SDS011;69160;45.498;-73.582;2023-07-02T12:06:27;15.70;;;11.73;;
20004;SDS011;69160;45.498;-73.582;2023-07-02T12:08:53;16.10;;;12.07;;
20004;SDS011;69160;45.498;-73.582;2023-07-02T12:11:19;17.00;;;12.00;;
20004;SDS011;69160;45.498;-73.582;2023-07-02T12:13:45;17.00;;;12.70;;
20004;SDS011;69160;45.498;-73.582;2023-07-02T12:16:11;16.47;;;12.37;;
20004;SDS011;69160;45.498;-73.582;2023-07-02T12:18:38;20.03;;;13.50;;
20004;SDS011;69160;45.498;-73.582;2023-07-02T12:21:04;18.50;;;13.30;;
20004;SDS011;69160;45.498;-73.582;2023-07-02T12:23:30;18.20;;;12.60;;
20004;SDS011;69160;45.498;-73.582;2023-07-02T12:25:56;15.97;;;12.50;;
20004;SDS011;69160;45.498;-73.582;2023-07-02T12:28:22;18.03;;;13.20;;
20004;SDS011;69160;45.498;-73.582;2023-07-02T12:30:49;19.93;;;14.57;;
20004;SDS011;69160;45.498;-73.582;2023-07-02T12:33:15;19.30;;;14.60;;
20004;SDS011;69160;45.498;-73.582;2023-07-02T12:35:41;21.97;;;15.30;;
20004;SDS011;69160;45.498;-73.582;2023-07-02T12:38:07;19.87;;;14.50;;
20004;SDS011;69160;45.498;-73.582;2023-07-02T12:40:34;18.50;;;13.70;;
20004;SDS011;69160;45.498;-73.582;2023-07-02T12:43:00;20.10;;;14.80;;
20004;SDS011;69160;45.498;-73.582;2023-07-02T12:45:26;19.10;;;14.77;;
20004;SDS011;69160;45.498;-73.582;2023-07-02T12:47:52;21.47;;;15.53;;
20004;SDS011;69160;45.498;-73.582;2023-07-02T12:50:18;21.50;;;16.10;;
20004;SDS011;69160;45.498;-73.582;2023-07-02T12:52:44;20.27;;;15.13;;
20004;SDS011;69160;45.498;-73.582;2023-07-02T12:55:10;19.07;;;14.50;;
20004;SDS011;69160;45.498;-73.582;2023-07-02T12:57:36;23.37;;;15.10;;
20004;SDS011;69160;45.498;-73.582;2023-07-02T13:00:03;19.07;;;14.00;;
20004;SDS011;69160;45.498;-73.582;2023-07-02T13:02:34;20.60;;;15.03;;
20004;SDS011;69160;45.498;-73.582;2023-07-02T13:05:00;22.90;;;16.43;;
20004;SDS011;69160;45.498;-73.582;2023-07-02T13:07:26;21.87;;;16.23;;
20004;SDS011;69160;45.498;-73.582;2023-07-02T13:09:55;23.53;;;16.43;;
20004;SDS011;69160;45.498;-73.582;2023-07-02T13:12:21;22.33;;;16.10;;
20004;SDS011;69160;45.498;-73.582;2023-07-02T13:14:47;20.90;;;15.20;;
20004;SDS011;69160;45.498;-73.582;2023-07-02T13:17:13;21.13;;;16.57;;
20004;SDS011;69160;45.498;-73.582;2023-07-02T13:19:39;22.50;;;17.23;;
20004;SDS011;69160;45.498;-73.582;2023-07-02T13:22:06;24.53;;;17.00;;
20004;SDS011;69160;45.498;-73.582;2023-07-02T13:24:33;23.63;;;17.53;;
20004;SDS011;69160;45.498;-73.582;2023-07-02T13:27:03;23.60;;;16.97;;
20004;SDS011;69160;45.498;-73.582;2023-07-02T13:29:32;25.00;;;18.13;;
20004;SDS011;69160;45.498;-73.582;2023-07-02T13:31:58;24.43;;;17.33;;
20004;SDS011;69160;45.498;-73.582;2023-07-02T13:34:25;28.83;;;17.60;;
20004;SDS011;69160;45.498;-73.582;2023-07-02T13:36:51;21.87;;;16.33;;
20004;SDS011;69160;45.498;-73.582;2023-07-02T13:39:17;26.00;;;18.60;;
20004;SDS011;69160;45.498;-73.582;2023-07-02T13:41:43;26.80;;;18.60;;
20004;SDS011;69160;45.498;-73.582;2023-07-02T13:44:10;26.80;;;18.53;;
20004;SDS011;69160;45.498;-73.582;2023-07-02T13:46:36;26.87;;;18.93;;
20004;SDS011;69160;45.498;-73.582;2023-07-02T13:49:02;25.00;;;18.40;;
20004;SDS011;69160;45.498;-73.582;2023-07-02T13:51:28;24.93;;;17.50;;
20004;SDS011;69160;45.498;-73.582;2023-07-02T13:53:54;24.53;;;17.37;;
20004;SDS011;69160;45.498;-73.582;2023-07-02T13:56:20;25.63;;;18.23;;
20004;SDS011;69160;45.498;-73.582;2023-07-02T13:59:07;24.40;;;18.70;;
20004;SDS011;69160;45.498;-73.582;2023-07-02T14:01:33;25.03;;;17.50;;
20004;SDS011;69160;45.498;-73.582;2023-07-02T14:04:00;22.97;;;17.70;;
20004;SDS011;69160;45.498;-73.582;2023-07-02T14:06:26;25.73;;;18.03;;
20004;SDS011;69160;45.498;-73.582;2023-07-02T14:08:53;27.97;;;19.57;;
20004;SDS011;69160;45.498;-73.582;2023-07-02T14:11:19;24.77;;;17.80;;
20004;SDS011;69160;45.498;-73.582;2023-07-02T14:13:47;25.03;;;18.47;;
20004;SDS011;69160;45.498;-73.582;2023-07-02T14:16:13;25.23;;;17.73;;
20004;SDS011;69160;45.498;-73.582;2023-07-02T14:18:40;24.63;;;17.47;;
20004;SDS011;69160;45.498;-73.582;2023-07-02T14:21:06;25.53;;;18.50;;